Time;durP1;ratioP1;P1;durP2;ratioP2;P2;SDS_P1;SDS_P2;PMS_P1;PMS_P2;Temp;Humidity;BMP_temperature;BMP_pressure;BME280_temperature;BME280_humidity;BME280_pressure;Samples;Min_cycle;Max_cycle;Signal;HPM_P1;HPM_P2
2023/03/29 00:00:34;;;;;;;;;;;;;;;5.06;92.71;101720.56;5072687;28;19916;-44
2023/03/29 00:03:02;;;;;;;;;;;;;;;5.08;91.97;101705.38;5070552;28;19919;-44
2023/03/29 00:05:27;;;;;;;;;;;;;;;5.09;92.35;101714.78;5073040;28;20386;-45
2023/03/29 00:08:00;;;;;;;;;;;;;;;5.10;91.91;101709.78;5074500;28;19926;-44
2023/03/29 00:10:26;;;;;;;;;;;;;;;5.11;92.39;101718.31;5070762;28;19989;-44
2023/03/29 00:12:52;;;;;;;;;;;;;;;5.13;91.79;101708.22;5070660;28;20025;-45
2023/03/29 00:15:18;;;;;;;;;;;;;;;5.14;92.23;101703.19;5072490;28;20494;-45
2023/03/29 00:17:43;;;;;;;;;;;;;;;5.16;91.70;101699.09;5070507;28;19913;-44
2023/03/29 00:20:09;;;;;;;;;;;;;;;5.19;92.04;101701.84;5070370;28;20040;-44
2023/03/29 00:22:35;;;;;;;;;;;;;;;5.20;92.54;101697.59;5069694;28;21917;-47
2023/03/29 00:25:00;;;;;;;;;;;;;;;5.25;92.08;101692.00;5068767;28;19912;-45
2023/03/29 00:27:26;;;;;;;;;;;;;;;5.23;91.67;101696.16;5072932;28;20749;-45
2023/03/29 00:29:51;;;;;;;;;;;;;;;5.24;92.06;101685.16;5068186;28;20409;-45
2023/03/29 00:32:16;;;;;;;;;;;;;;;5.26;92.02;101682.69;5072234;28;19974;-46
2023/03/29 00:34:44;;;;;;;;;;;;;;;5.30;92.03;101682.09;5071873;28;19925;-45
2023/03/29 00:37:11;;;;;;;;;;;;;;;5.29;92.09;101683.78;5066890;28;20449;-44
2023/03/29 00:39:39;;;;;;;;;;;;;;;5.29;92.01;101686.34;5072201;28;20374;-45
2023/03/29 00:42:05;;;;;;;;;;;;;;;5.39;90.94;101691.19;5072070;28;19966;-45
2023/03/29 00:44:48;;;;;;;;;;;;;;;5.42;90.81;101685.41;5064641;28;19924;-45
2023/03/29 00:47:14;;;;;;;;;;;;;;;5.36;90.75;101680.81;5067477;28;20421;-45
2023/03/29 00:49:40;;;;;;;;;;;;;;;5.41;90.92;101678.56;5069805;28;19916;-44
2023/03/29 00:52:06;;;;;;;;;;;;;;;5.41;91.41;101682.78;5068152;28;19966;-44
2023/03/29 00:54:33;;;;;;;;;;;;;;;5.46;90.45;101674.63;5068842;28;19943;-44
2023/03/29 00:57:02;;;;;;;;;;;;;;;5.52;90.97;101671.53;5070127;28;19964;-45
2023/03/29 00:59:31;;;;;;;;;;;;;;;5.51;89.75;101660.47;5069541;28;19938;-44
2023/03/29 01:01:58;;;;;;;;;;;;;;;5.58;89.70;101659.16;5071444;28;19970;-44
2023/03/29 01:04:23;;;;;;;;;;;;;;;5.55;89.70;101656.44;5071222;28;19923;-45
2023/03/29 01:06:54;;;;;;;;;;;;;;;5.59;89.79;101661.84;5067311;28;19930;-46
2023/03/29 01:09:20;;;;;;;;;;;;;;;5.59;90.18;101654.19;5067012;28;20809;-45
2023/03/29 01:11:49;;;;;;;;;;;;;;;5.59;90.60;101651.63;5069646;28;19920;-45
2023/03/29 01:14:22;;;;;;;;;;;;;;;5.59;90.42;101655.84;5070105;28;19939;-44
2023/03/29 01:16:47;;;;;;;;;;;;;;;5.59;90.39;101653.28;5068300;28;19912;-44
2023/03/29 01:19:17;;;;;;;;;;;;;;;5.61;91.11;101651.72;5068513;28;19931;-44
2023/03/29 01:21:46;;;;;;;;;;;;;;;5.68;90.88;101656.38;5070362;28;19951;-49
2023/03/29 01:24:11;;;;;;;;;;;;;;;5.69;90.85;101647.06;5069490;28;20424;-47
2023/03/29 01:26:40;;;;;;;;;;;;;;;5.66;91.31;101637.56;5069609;28;19917;-48
2023/03/29 01:29:11;;;;;;;;;;;;;;;5.62;91.65;101651.78;5066504;28;19928;-52
2023/03/29 01:31:38;;;;;;;;;;;;;;;5.62;90.92;101643.25;5067715;28;20007;-52
2023/03/29 01:34:15;;;;;;;;;;;;;;;5.59;91.87;101628.66;5069912;28;19934;-50
2023/03/29 01:36:45;;;;;;;;;;;;;;;5.61;93.01;101631.28;5066985;28;19957;-51
2023/03/29 01:39:10;;;;;;;;;;;;;;;5.61;93.17;101628.75;5070652;28;19946;-49
2023/03/29 01:41:39;;;;;;;;;;;;;;;5.56;94.33;101625.03;5052366;28;20286;-51
2023/03/29 01:44:22;;;;;;;;;;;;;;;5.56;94.51;101622.47;5073630;28;19973;-50
2023/03/29 01:46:52;;;;;;;;;;;;;;;5.58;93.87;101616.69;5074342;28;20060;-48
2023/03/29 01:49:46;;;;;;;;;;;;;;;5.57;95.51;101619.13;5067000;28;19951;-50
2023/03/29 01:52:21;;;;;;;;;;;;;;;5.56;95.50;101607.19;5052498;28;19927;-52
2023/03/29 01:54:51;;;;;;;;;;;;;;;5.52;95.71;101608.69;5072346;28;19982;-51
2023/03/29 01:57:18;;;;;;;;;;;;;;;5.50;94.52;101606.81;5071831;28;19912;-51
2023/03/29 01:59:46;;;;;;;;;;;;;;;5.53;95.25;101605.34;5073065;28;20343;-50
2023/03/29 02:02:13;;;;;;;;;;;;;;;5.53;96.03;101601.91;5072793;28;20003;-52
2023/03/29 02:04:43;;;;;;;;;;;;;;;5.56;96.85;101607.19;5071796;28;19912;-50
2023/03/29 02:07:09;;;;;;;;;;;;;;;5.53;97.31;101601.91;5072222;28;19912;-50
2023/03/29 02:09:36;;;;;;;;;;;;;;;5.55;98.23;101601.19;5072840;28;19916;-49
2023/03/29 02:12:03;;;;;;;;;;;;;;;5.56;97.19;101595.28;5071559;28;19920;-51
2023/03/29 02:14:29;;;;;;;;;;;;;;;5.55;98.08;101596.09;5079080;28;19941;-49
2023/03/29 02:16:54;;;;;;;;;;;;;;;5.58;96.89;101597.94;5071362;28;19916;-49
2023/03/29 02:19:22;;;;;;;;;;;;;;;5.56;98.46;101581.66;5055384;28;20354;-49
2023/03/29 02:22:04;;;;;;;;;;;;;;;5.52;99.04;101575.50;5072981;28;20256;-50
2023/03/29 02:24:31;;;;;;;;;;;;;;;5.55;98.82;101569.69;5070379;28;19972;-46
2023/03/29 02:26:57;;;;;;;;;;;;;;;5.51;99.12;101573.72;5077187;28;20284;-45
2023/03/29 02:29:22;;;;;;;;;;;;;;;5.51;98.45;101566.06;5067578;28;19916;-45
2023/03/29 02:31:55;;;;;;;;;;;;;;;5.52;98.32;101569.50;5071120;28;19977;-45
2023/03/29 02:34:32;;;;;;;;;;;;;;;5.52;96.74;101565.31;5070999;28;19977;-44
2023/03/29 02:37:06;;;;;;;;;;;;;;;5.56;98.96;101561.25;5072344;28;20431;-45
2023/03/29 02:39:33;;;;;;;;;;;;;;;5.55;98.41;101549.28;5068263;28;19920;-45
2023/03/29 02:41:59;;;;;;;;;;;;;;;5.55;97.99;101549.28;5071562;28;19919;-45
2023/03/29 02:44:27;;;;;;;;;;;;;;;5.55;98.05;101551.84;5072169;28;19916;-45
2023/03/29 02:46:55;;;;;;;;;;;;;;;5.57;98.26;101550.25;5070741;28;20010;-45
2023/03/29 02:49:21;;;;;;;;;;;;;;;5.58;97.91;101546.91;5069879;28;20371;-44
2023/03/29 02:51:47;;;;;;;;;;;;;;;5.59;97.81;101548.69;5069851;28;19924;-45
2023/03/29 02:54:18;;;;;;;;;;;;;;;5.60;97.51;101537.69;5071304;28;20007;-45
2023/03/29 02:56:54;;;;;;;;;;;;;;;5.60;98.00;101530.91;5067943;28;19919;-46
2023/03/29 02:59:21;;;;;;;;;;;;;;;5.62;97.17;101541.19;5070438;28;19940;-46
2023/03/29 03:01:46;;;;;;;;;;;;;;;5.64;97.01;101534.50;5071385;28;19948;-45
2023/03/29 03:04:12;;;;;;;;;;;;;;;5.65;97.18;101529.53;5065309;28;19982;-46
2023/03/29 03:06:37;;;;;;;;;;;;;;;5.66;96.51;101532.94;5070309;28;19916;-45
2023/03/29 03:09:03;;;;;;;;;;;;;;;5.70;95.94;101529.75;5070400;28;20406;-45
2023/03/29 03:11:29;;;;;;;;;;;;;;;5.71;96.23;101536.66;5071175;28;19923;-45
2023/03/29 03:13:54;;;;;;;;;;;;;;;5.73;95.87;101529.09;5071222;28;20306;-45
2023/03/29 03:16:20;;;;;;;;;;;;;;;5.75;95.88;101532.59;5073033;28;19961;-45
2023/03/29 03:18:45;;;;;;;;;;;;;;;5.77;95.49;101525.94;5069677;28;19960;-45
2023/03/29 03:21:12;;;;;;;;;;;;;;;5.78;95.64;101515.78;5072318;28;19961;-46
2023/03/29 03:23:37;;;;;;;;;;;;;;;5.81;94.74;101512.53;5072715;28;19988;-45
2023/03/29 03:26:02;;;;;;;;;;;;;;;5.84;94.31;101507.63;5055057;28;20332;-46
2023/03/29 03:28:28;;;;;;;;;;;;;;;5.85;94.55;101509.38;5068131;28;19924;-45
2023/03/29 03:30:53;;;;;;;;;;;;;;;5.87;94.46;101513.75;5069972;28;19962;-45
2023/03/29 03:33:18;;;;;;;;;;;;;;;5.86;94.28;101511.13;5068936;28;20283;-46
2023/03/29 03:35:45;;;;;;;;;;;;;;;5.90;93.52;101508.84;5071372;28;19923;-44
2023/03/29 03:38:10;;;;;;;;;;;;;;;5.95;93.41;101515.94;5065248;28;19920;-45
2023/03/29 03:40:35;;;;;;;;;;;;;;;5.96;93.80;101504.91;5070888;28;19916;-45
2023/03/29 03:43:01;;;;;;;;;;;;;;;5.95;92.82;101513.38;5073306;28;19920;-45
2023/03/29 03:45:26;;;;;;;;;;;;;;;5.99;92.81;101511.06;5066758;28;19949;-45
2023/03/29 03:47:51;;;;;;;;;;;;;;;5.99;92.59;101513.63;5068504;28;19935;-44
2023/03/29 03:50:17;;;;;;;;;;;;;;;6.01;92.66;101516.28;5070212;28;19912;-45
2023/03/29 03:52:42;;;;;;;;;;;;;;;6.03;92.49;101519.78;5029172;28;1134529;-45
2023/03/29 03:55:08;;;;;;;;;;;;;;;6.03;92.16;101513.00;5074074;28;19916;-44
2023/03/29 03:57:36;;;;;;;;;;;;;;;6.06;92.34;101509.72;5072217;28;20865;-45
2023/03/29 04:00:12;;;;;;;;;;;;;;;6.06;92.04;101509.72;5072980;28;19928;-45
2023/03/29 04:02:37;;;;;;;;;;;;;;;6.08;91.94;101519.25;5073913;28;19954;-46
2023/03/29 04:05:03;;;;;;;;;;;;;;;6.12;91.50;101510.06;5056525;28;19968;-44
2023/03/29 04:07:28;;;;;;;;;;;;;;;6.11;91.62;101503.22;5070498;28;19950;-45
2023/03/29 04:09:53;;;;;;;;;;;;;;;6.15;91.67;101500.03;5055867;28;20030;-45
2023/03/29 04:12:19;;;;;;;;;;;;;;;6.14;91.12;101498.28;5070619;28;19924;-47
2023/03/29 04:14:46;;;;;;;;;;;;;;;6.13;91.35;101497.41;5072680;28;19923;-44
2023/03/29 04:17:11;;;;;;;;;;;;;;;6.15;91.12;101494.94;5068865;28;19920;-45
2023/03/29 04:19:36;;;;;;;;;;;;;;;6.15;90.85;101488.16;5070269;28;19927;-45
2023/03/29 04:22:02;;;;;;;;;;;;;;;6.14;91.18;101488.97;5068966;28;19963;-45
2023/03/29 04:24:27;;;;;;;;;;;;;;;6.14;91.16;101486.41;5070904;28;19916;-45
2023/03/29 04:26:52;;;;;;;;;;;;;;;6.14;90.66;101488.97;5069773;28;19960;-45
2023/03/29 04:29:17;;;;;;;;;;;;;;;6.17;90.92;101485.69;5070187;28;19935;-45
2023/03/29 04:31:43;;;;;;;;;;;;;;;6.16;90.78;101482.25;5067323;28;20364;-45
2023/03/29 04:34:08;;;;;;;;;;;;;;;6.16;90.45;101481.38;5066833;28;20023;-45
2023/03/29 04:36:33;;;;;;;;;;;;;;;6.18;90.56;101479.78;5049175;28;20282;-45
2023/03/29 04:39:00;;;;;;;;;;;;;;;6.21;90.53;101486.75;5070458;28;19938;-45
2023/03/29 04:41:26;;;;;;;;;;;;;;;6.21;90.05;101479.09;5068971;28;19961;-45
2023/03/29 04:43:52;;;;;;;;;;;;;;;6.26;89.83;101481.09;5063976;28;19920;-45
2023/03/29 04:46:17;;;;;;;;;;;;;;;6.27;89.88;101476.88;5068480;28;19973;-45
2023/03/29 04:48:42;;;;;;;;;;;;;;;6.29;90.12;101478.69;5070372;28;20344;-46
2023/03/29 04:51:08;;;;;;;;;;;;;;;6.31;90.25;101477.13;5070803;28;19930;-46
2023/03/29 04:53:33;;;;;;;;;;;;;;;6.30;89.85;101474.47;5069180;28;19923;-46
2023/03/29 04:55:58;;;;;;;;;;;;;;;6.31;89.90;101469.47;5052020;28;19923;-45
2023/03/29 04:58:27;;;;;;;;;;;;;;;6.33;90.03;101465.31;5068773;28;19986;-46
2023/03/29 05:00:57;;;;;;;;;;;;;;;6.34;89.89;101467.06;5068323;28;19942;-46
2023/03/29 05:03:22;;;;;;;;;;;;;;;6.38;89.82;101463.00;5068698;28;20006;-45
2023/03/29 05:05:48;;;;;;;;;;;;;;;6.36;89.94;101462.03;5067784;28;20006;-52
2023/03/29 05:08:13;;;;;;;;;;;;;;;6.36;90.01;101459.47;5069550;28;19975;-51
2023/03/29 05:10:40;;;;;;;;;;;;;;;6.35;89.99;101458.59;5066699;28;19920;-50
2023/03/29 05:13:06;;;;;;;;;;;;;;;6.36;90.05;101464.59;5066583;28;20370;-49
2023/03/29 05:15:31;;;;;;;;;;;;;;;6.40;89.98;101462.28;5071510;28;19920;-49
2023/03/29 05:17:57;;;;;;;;;;;;;;;6.44;89.62;101463.34;5064794;28;19927;-48
2023/03/29 05:20:23;;;;;;;;;;;;;;;6.45;89.43;101460.88;5070549;28;19916;-48
2023/03/29 05:22:49;;;;;;;;;;;;;;;6.54;89.55;101457.03;5071041;28;19924;-48
2023/03/29 05:25:16;;;;;;;;;;;;;;;6.53;89.29;101458.72;5069332;28;19925;-48
2023/03/29 05:27:42;;;;;;;;;;;;;;;6.53;89.15;101463.81;5065563;28;19956;-45
2023/03/29 05:30:07;;;;;;;;;;;;;;;6.61;89.36;101471.91;5071248;28;19924;-47
2023/03/29 05:32:35;;;;;;;;;;;;;;;6.60;89.18;101465.03;5069265;28;19921;-47
2023/03/29 05:35:00;;;;;;;;;;;;;;;6.67;88.62;101472.22;5067452;28;20014;-45
2023/03/29 05:37:27;;;;;;;;;;;;;;;6.67;88.98;101467.09;5072332;28;20350;-48
2023/03/29 05:39:53;;;;;;;;;;;;;;;6.75;88.66;101477.75;5068375;28;19924;-48
2023/03/29 05:42:21;;;;;;;;;;;;;;;6.72;88.94;101473.34;5071231;28;19920;-47
2023/03/29 05:44:46;;;;;;;;;;;;;;;6.76;88.88;101477.84;5069611;28;19927;-47
2023/03/29 05:47:12;;;;;;;;;;;;;;;6.76;88.80;101476.97;5067796;28;19917;-46
2023/03/29 05:49:37;;;;;;;;;;;;;;;6.78;88.94;101483.91;5067922;28;19912;-48
2023/03/29 05:52:02;;;;;;;;;;;;;;;6.79;88.89;101472.88;5066095;28;19928;-47
2023/03/29 05:54:28;;;;;;;;;;;;;;;6.82;88.87;101480.72;5068256;28;19931;-48
2023/03/29 05:56:53;;;;;;;;;;;;;;;6.84;89.08;101485.91;5066215;28;20398;-46
2023/03/29 05:59:19;;;;;;;;;;;;;;;6.89;88.85;101481.91;5068809;28;19985;-46
2023/03/29 06:01:47;;;;;;;;;;;;;;;6.91;88.28;101493.97;5068233;28;20333;-48
2023/03/29 06:04:13;;;;;;;;;;;;;;;6.96;88.47;101484.88;5068383;28;19927;-48
2023/03/29 06:06:39;;;;;;;;;;;;;;;6.99;88.13;101487.59;5066080;28;19920;-48
2023/03/29 06:09:04;;;;;;;;;;;;;;;7.02;88.33;101491.09;5074835;28;20501;-47
2023/03/29 06:11:30;;;;;;;;;;;;;;;7.06;88.21;101485.38;5066559;28;19948;-48
2023/03/29 06:13:56;;;;;;;;;;;;;;;7.10;88.10;101484.69;5068551;28;19912;-46
2023/03/29 06:16:22;;;;;;;;;;;;;;;7.10;88.39;101488.16;5068244;28;19919;-48
2023/03/29 06:18:47;;;;;;;;;;;;;;;7.14;88.59;101489.19;5068727;28;19923;-46
2023/03/29 06:21:12;;;;;;;;;;;;;;;7.15;88.59;101480.72;5070455;28;19995;-48
2023/03/29 06:23:38;;;;;;;;;;;;;;;7.17;88.50;101484.25;5068304;28;19956;-45
2023/03/29 06:26:04;;;;;;;;;;;;;;;7.22;88.53;101486.25;5065706;28;19920;-49
2023/03/29 06:28:30;;;;;;;;;;;;;;;7.25;88.47;101490.63;5069194;28;20118;-48
2023/03/29 06:31:01;;;;;;;;;;;;;;;7.31;88.30;101490.94;5068869;28;19926;-50
2023/03/29 06:33:27;;;;;;;;;;;;;;;7.34;88.75;101490.19;5071290;28;19920;-52
2023/03/29 06:35:53;;;;;;;;;;;;;;;7.36;88.45;101488.63;5068857;28;19966;-49
2023/03/29 06:38:19;;;;;;;;;;;;;;;7.40;88.57;101480.28;5071400;28;20347;-48
2023/03/29 06:40:45;;;;;;;;;;;;;;;7.43;88.39;101483.00;5070879;28;19916;-47
2023/03/29 06:43:10;;;;;;;;;;;;;;;7.43;88.57;101483.00;5071270;28;19930;-47
2023/03/29 06:45:36;;;;;;;;;;;;;;;7.47;88.72;101479.81;5070630;28;20347;-48
2023/03/29 06:48:02;;;;;;;;;;;;;;;7.52;88.60;101479.25;5072552;28;20035;-48
2023/03/29 06:50:28;;;;;;;;;;;;;;;7.52;88.43;101479.25;5056272;28;19920;-46
2023/03/29 06:52:53;;;;;;;;;;;;;;;7.60;88.79;101476.19;5069796;28;19947;-46
2023/03/29 06:55:20;;;;;;;;;;;;;;;7.67;88.55;101480.78;5072887;28;20066;-47
2023/03/29 06:57:46;;;;;;;;;;;;;;;7.72;88.29;101484.47;5075364;28;20392;-49
2023/03/29 07:00:18;;;;;;;;;;;;;;;7.78;88.40;101488.22;5070003;28;20390;-47
2023/03/29 07:02:48;;;;;;;;;;;;;;;7.82;88.25;101489.22;5075239;28;19947;-46
2023/03/29 07:05:13;;;;;;;;;;;;;;;7.88;88.56;101486.94;5070357;28;19916;-50
2023/03/29 07:10:26;;;;;;;;;;;;;;;7.99;88.22;101487.47;5075272;28;19935;-43
2023/03/29 07:12:52;;;;;;;;;;;;;;;8.04;88.22;101494.59;5075316;28;19952;-43
2023/03/29 07:15:19;;;;;;;;;;;;;;;8.11;88.29;101500.00;5076488;28;20329;-41
2023/03/29 07:17:44;;;;;;;;;;;;;;;8.15;88.27;101501.91;5072930;28;20164;-43
2023/03/29 07:20:13;;;;;;;;;;;;;;;8.19;88.22;101502.16;5053022;28;20351;-43
2023/03/29 07:22:42;;;;;;;;;;;;;;;8.26;88.14;101500.75;5068158;28;20240;-42
2023/03/29 07:25:08;;;;;;;;;;;;;;;8.29;88.05;101493.19;5072632;28;19922;-43
2023/03/29 07:27:34;;;;;;;;;;;;;;;8.33;88.24;101503.66;5070985;28;19929;-43
2023/03/29 07:29:59;;;;;;;;;;;;;;;8.38;88.43;101508.19;5071623;28;19916;-43
2023/03/29 07:32:25;;;;;;;;;;;;;;;8.42;88.17;101505.81;5073924;28;19916;-44
2023/03/29 07:34:50;;;;;;;;;;;;;;;8.46;88.06;101514.53;5066160;28;20290;-43
2023/03/29 07:37:16;;;;;;;;;;;;;;;8.46;87.99;101517.97;5072098;28;19924;-44
2023/03/29 07:39:41;;;;;;;;;;;;;;;8.50;88.34;101513.88;5070239;28;19924;-44
2023/03/29 07:42:06;;;;;;;;;;;;;;;8.50;88.14;101525.00;5069850;28;19920;-42
2023/03/29 07:44:32;;;;;;;;;;;;;;;8.54;88.64;101526.88;5071460;28;19927;-44
2023/03/29 07:46:58;;;;;;;;;;;;;;;8.56;88.55;101521.84;5070516;28;19927;-44
2023/03/29 07:49:24;;;;;;;;;;;;;;;8.58;88.43;101528.78;5072450;28;19927;-44
2023/03/29 07:51:49;;;;;;;;;;;;;;;8.63;88.95;101528.13;5069716;28;20055;-42
2023/03/29 07:54:15;;;;;;;;;;;;;;;8.65;89.12;101523.94;5071061;28;20053;-43
2023/03/29 07:56:41;;;;;;;;;;;;;;;8.69;88.88;101526.72;5068852;28;19954;-43
2023/03/29 07:59:06;;;;;;;;;;;;;;;8.71;89.08;101521.66;5069882;28;21625;-42
2023/03/29 08:01:31;;;;;;;;;;;;;;;8.75;89.09;101524.44;5067666;28;19924;-42
2023/03/29 08:03:57;;;;;;;;;;;;;;;8.81;88.95;101518.72;5070354;28;19974;-42
2023/03/29 08:06:25;;;;;;;;;;;;;;;8.81;89.80;101517.03;5069221;28;19928;-43
2023/03/29 08:08:51;;;;;;;;;;;;;;;8.88;90.25;101514.75;5063600;28;19920;-43
2023/03/29 08:11:16;;;;;;;;;;;;;;;8.93;90.39;101514.16;5067767;28;19935;-43
2023/03/29 08:13:41;;;;;;;;;;;;;;;8.97;90.25;101525.41;5069584;28;19923;-46
2023/03/29 08:16:07;;;;;;;;;;;;;;;9.00;89.99;101520.44;5067145;28;20317;-45
2023/03/29 08:18:33;;;;;;;;;;;;;;;8.99;90.30;101519.56;5070149;28;19968;-44
2023/03/29 08:20:58;;;;;;;;;;;;;;;9.03;90.15;101521.44;5071206;28;19923;-43
2023/03/29 08:23:23;;;;;;;;;;;;;;;8.96;91.19;101527.09;5069671;28;20387;-43
2023/03/29 08:25:49;;;;;;;;;;;;;;;8.92;91.67;101525.22;5070842;28;19919;-44
2023/03/29 08:28:14;;;;;;;;;;;;;;;8.90;92.97;101521.69;5069012;28;19920;-44
2023/03/29 08:30:40;;;;;;;;;;;;;;;8.87;92.63;101508.75;5049234;28;19920;-46
2023/03/29 08:33:05;;;;;;;;;;;;;;;8.93;93.28;101506.47;5066855;28;19924;-44
2023/03/29 08:35:31;;;;;;;;;;;;;;;8.97;93.37;101500.63;5068816;28;19920;-43
2023/03/29 08:37:56;;;;;;;;;;;;;;;9.09;93.65;101508.00;5070058;28;19966;-46
2023/03/29 08:40:23;;;;;;;;;;;;;;;9.22;93.61;101499.16;5073762;28;20358;-44
2023/03/29 08:42:48;;;;;;;;;;;;;;;9.41;93.24;101499.16;5066262;28;19912;-43
2023/03/29 08:45:19;;;;;;;;;;;;;;;9.53;91.90;101497.09;5067705;28;19922;-43
2023/03/29 08:47:48;;;;;;;;;;;;;;;9.63;92.23;101498.34;5071131;28;20479;-45
2023/03/29 08:50:14;;;;;;;;;;;;;;;9.76;91.22;101502.31;5071440;28;19942;-44
2023/03/29 08:52:45;;;;;;;;;;;;;;;9.79;90.97;101502.44;5068027;28;20723;-44
2023/03/29 08:55:18;;;;;;;;;;;;;;;9.82;91.39;101503.44;5072593;28;19916;-44
2023/03/29 08:57:47;;;;;;;;;;;;;;;9.89;91.38;101496.88;5067153;28;19972;-44
2023/03/29 09:00:19;;;;;;;;;;;;;;;10.01;91.57;101499.94;5068574;28;19916;-43
2023/03/29 09:02:45;;;;;;;;;;;;;;;10.15;90.79;101493.66;5067333;28;20366;-43
2023/03/29 09:05:19;;;;;;;;;;;;;;;10.26;90.50;101490.69;5068671;28;19916;-43
2023/03/29 09:07:44;;;;;;;;;;;;;;;10.29;90.74;101495.94;5067169;28;19920;-43
2023/03/29 09:10:17;;;;;;;;;;;;;;;10.43;90.18;101499.91;5067208;28;19931;-44
2023/03/29 09:12:51;;;;;;;;;;;;;;;10.51;89.66;101498.53;5073340;28;19912;-42
2023/03/29 09:15:35;;;;;;;;;;;;;;;10.53;90.68;101489.16;5071033;28;19922;-43
2023/03/29 09:18:10;;;;;;;;;;;;;;;10.72;90.17;101501.88;5062905;28;20011;-42
2023/03/29 09:20:40;;;;;;;;;;;;;;;10.78;89.96;101495.22;5071054;28;19924;-43
2023/03/29 09:23:24;;;;;;;;;;;;;;;10.93;89.27;101503.53;5069575;28;19920;-43
2023/03/29 09:26:08;;;;;;;;;;;;;;;10.91;89.20;101500.88;5072826;28;19917;-45
2023/03/29 09:28:41;;;;;;;;;;;;;;;10.84;89.76;101498.91;5077194;28;19965;-45
2023/03/29 09:31:15;;;;;;;;;;;;;;;10.84;89.86;101485.16;5070422;28;19916;-44
2023/03/29 09:33:46;;;;;;;;;;;;;;;10.84;90.03;101482.59;5073015;28;19939;-43
2023/03/29 09:36:15;;;;;;;;;;;;;;;10.89;90.68;101484.50;5072930;28;19999;-43
2023/03/29 09:38:42;;;;;;;;;;;;;;;10.95;90.06;101481.28;5074142;28;20287;-45
2023/03/29 09:41:20;;;;;;;;;;;;;;;11.00;90.05;101492.63;5073431;28;20284;-47
2023/03/29 09:43:46;;;;;;;;;;;;;;;10.99;89.42;101499.47;5071509;28;19912;-44
2023/03/29 09:46:23;;;;;;;;;;;;;;;10.90;90.30;101495.69;5073650;28;19916;-44
2023/03/29 09:48:49;;;;;;;;;;;;;;;10.87;90.36;101485.28;5070302;28;19920;-50
2023/03/29 09:51:16;;;;;;;;;;;;;;;10.86;91.31;101497.28;5066888;28;19915;-48
2023/03/29 09:53:41;;;;;;;;;;;;;;;10.85;92.29;101499.78;5069107;28;19973;-46
2023/03/29 09:56:07;;;;;;;;;;;;;;;10.84;91.63;101504.03;5070442;28;19916;-46
2023/03/29 09:58:33;;;;;;;;;;;;;;;10.70;92.07;101500.97;5068491;28;19931;-47
2023/03/29 10:01:04;;;;;;;;;;;;;;;10.56;92.89;101507.28;5076153;28;19908;-50
2023/03/29 10:03:30;;;;;;;;;;;;;;;10.41;94.66;101505.00;5075087;28;19945;-46
2023/03/29 10:05:58;;;;;;;;;;;;;;;10.38;95.09;101504.00;5070791;28;19909;-48
2023/03/29 10:08:27;;;;;;;;;;;;;;;10.38;95.79;101504.00;5072559;28;20164;-49
2023/03/29 10:10:55;;;;;;;;;;;;;;;10.37;97.41;101499.66;5073947;28;19912;-50
2023/03/29 10:13:25;;;;;;;;;;;;;;;10.37;97.03;101490.25;5070996;28;19916;-47
2023/03/29 10:16:17;;;;;;;;;;;;;;;10.43;97.20;101495.66;5080612;28;20367;-46
2023/03/29 10:18:42;;;;;;;;;;;;;;;10.52;98.17;101495.13;5070414;28;19912;-46
2023/03/29 10:21:10;;;;;;;;;;;;;;;10.63;97.07;101480.09;5080722;28;20290;-48
2023/03/29 10:23:36;;;;;;;;;;;;;;;10.78;96.64;101480.66;5074374;28;20019;-47
2023/03/29 10:26:03;;;;;;;;;;;;;;;10.92;95.99;101486.31;5073395;28;19916;-47
2023/03/29 10:28:29;;;;;;;;;;;;;;;10.98;95.53;101486.53;5074193;28;19916;-46
2023/03/29 10:30:58;;;;;;;;;;;;;;;11.01;95.11;101484.97;5074244;28;19920;-46
2023/03/29 10:33:26;;;;;;;;;;;;;;;10.99;95.53;101485.72;5073992;28;20869;-47
2023/03/29 10:35:55;;;;;;;;;;;;;;;11.00;95.36;101475.50;5076497;28;19916;-48
2023/03/29 10:38:23;;;;;;;;;;;;;;;10.95;95.69;101477.00;5079665;28;19916;-46
2023/03/29 10:40:52;;;;;;;;;;;;;;;10.85;97.04;101476.63;5071999;28;19924;-47
2023/03/29 10:43:20;;;;;;;;;;;;;;;10.84;97.34;101472.28;5076167;28;20653;-47
2023/03/29 10:45:49;;;;;;;;;;;;;;;10.91;98.53;101481.97;5075571;28;19922;-47
2023/03/29 10:48:15;;;;;;;;;;;;;;;10.89;99.60;101468.19;5071800;28;19946;-47
2023/03/29 10:50:41;;;;;;;;;;;;;;;10.93;98.24;101468.38;5072236;28;19913;-48
2023/03/29 10:53:26;;;;;;;;;;;;;;;11.00;97.70;101465.19;5073830;28;19996;-50
2023/03/29 10:56:06;;;;;;;;;;;;;;;11.08;97.68;101451.72;5074478;28;20004;-51
2023/03/29 10:58:57;;;;;;;;;;;;;;;11.24;97.09;101448.88;5071121;28;19994;-52
2023/03/29 11:01:41;;;;;;;;;;;;;;;11.49;96.47;101440.28;5037722;28;19926;-50
2023/03/29 11:04:27;;;;;;;;;;;;;;;11.85;96.20;101437.19;5077051;28;20393;-50
2023/03/29 11:06:52;;;;;;;;;;;;;;;12.21;94.26;101428.03;5039320;28;19909;-50
2023/03/29 11:09:41;;;;;;;;;;;;;;;12.45;92.15;101429.59;5058553;28;19919;-49
2023/03/29 11:12:09;;;;;;;;;;;;;;;12.54;92.05;101429.84;5053487;28;19920;-50
2023/03/29 11:14:50;;;;;;;;;;;;;;;12.61;91.55;101419.72;5075236;28;19920;-48
2023/03/29 11:17:30;;;;;;;;;;;;;;;12.70;90.86;101429.47;5078919;28;20040;-50
2023/03/29 11:19:58;;;;;;;;;;;;;;;12.75;90.52;101417.56;5059570;28;20351;-51
2023/03/29 11:22:29;;;;;;;;;;;;;;;12.83;90.47;101412.59;5076783;28;19916;-49
2023/03/29 11:25:13;;;;;;;;;;;;;;;13.01;90.06;101407.06;5081904;28;19924;-48
2023/03/29 11:27:57;;;;;;;;;;;;;;;13.15;88.61;101410.88;5075237;28;20279;-47
2023/03/29 11:30:38;;;;;;;;;;;;;;;13.19;88.13;101415.31;5076276;28;19935;-48
2023/03/29 11:33:15;;;;;;;;;;;;;;;13.21;89.31;101423.97;5070348;28;19917;-48
2023/03/29 11:36:02;;;;;;;;;;;;;;;13.34;88.10;101428.63;5073777;28;20011;-46
2023/03/29 11:38:32;;;;;;;;;;;;;;;13.33;89.41;101428.59;5074689;28;19916;-47
2023/03/29 11:41:01;;;;;;;;;;;;;;;13.30;87.52;101431.13;5075969;28;20434;-44
2023/03/29 11:43:30;;;;;;;;;;;;;;;13.29;87.51;101426.78;5072158;28;19912;-43
2023/03/29 11:46:16;;;;;;;;;;;;;;;13.24;87.80;101426.66;5071423;28;20342;-45
2023/03/29 11:49:01;;;;;;;;;;;;;;;13.26;88.12;101424.97;5060977;28;19916;-45
2023/03/29 11:51:41;;;;;;;;;;;;;;;13.39;88.64;101415.84;5076009;28;19945;-44
2023/03/29 11:54:06;;;;;;;;;;;;;;;13.71;88.13;101418.34;5071249;28;19916;-44
2023/03/29 11:56:31;;;;;;;;;;;;;;;13.85;85.68;101407.50;5076955;28;20351;-44
2023/03/29 11:59:00;;;;;;;;;;;;;;;13.99;83.98;101405.22;5071338;28;19912;-44
2023/03/29 12:01:38;;;;;;;;;;;;;;;14.04;84.53;101402.75;5069919;28;19916;-45
2023/03/29 12:04:23;;;;;;;;;;;;;;;14.11;84.27;101405.50;5074047;28;19917;-44
2023/03/29 12:06:54;;;;;;;;;;;;;;;14.05;84.06;101412.25;5065919;28;20347;-43
2023/03/29 12:09:19;;;;;;;;;;;;;;;13.95;83.75;101404.31;5072815;28;19920;-44
2023/03/29 12:11:50;;;;;;;;;;;;;;;13.92;84.47;101405.94;5072722;28;19919;-45
2023/03/29 12:14:15;;;;;;;;;;;;;;;13.82;84.28;101402.25;5070576;28;19913;-44
2023/03/29 12:16:44;;;;;;;;;;;;;;;13.80;85.19;101413.41;5070744;28;20354;-44
2023/03/29 12:19:17;;;;;;;;;;;;;;;13.66;83.73;101419.13;5073071;28;19920;-43
2023/03/29 12:21:44;;;;;;;;;;;;;;;13.59;84.38;101413.75;5068324;28;19921;-44
2023/03/29 12:24:11;;;;;;;;;;;;;;;13.48;84.52;101407.47;5073551;28;19958;-46
2023/03/29 12:26:56;;;;;;;;;;;;;;;13.47;84.72;101410.84;5076171;28;20432;-44
2023/03/29 12:29:24;;;;;;;;;;;;;;;13.54;84.46;101405.91;5074831;28;20010;-44
2023/03/29 12:31:55;;;;;;;;;;;;;;;13.65;83.93;101399.28;5070718;28;20388;-45
2023/03/29 12:34:23;;;;;;;;;;;;;;;13.69;84.15;101401.09;5076199;28;19912;-45
2023/03/29 12:36:51;;;;;;;;;;;;;;;13.73;84.29;101393.41;5069803;28;19931;-47
2023/03/29 12:39:19;;;;;;;;;;;;;;;13.84;81.24;101395.41;5070425;28;19912;-46
2023/03/29 12:41:47;;;;;;;;;;;;;;;13.94;83.70;101386.16;5063760;28;19947;-44
2023/03/29 12:44:19;;;;;;;;;;;;;;;14.04;83.40;101379.47;5070231;28;20381;-44
2023/03/29 12:46:45;;;;;;;;;;;;;;;14.17;82.50;101371.16;5071700;28;20366;-43
2023/03/29 12:49:19;;;;;;;;;;;;;;;14.34;81.26;101361.16;5068467;28;19923;-43
2023/03/29 12:51:45;;;;;;;;;;;;;;;14.47;79.59;101343.34;5070299;28;20026;-44